Time;durP1;ratioP1;P1;durP2;ratioP2;P2;SDS_P1;SDS_P2;PMS_P1;PMS_P2;Temp;Humidity;BMP_temperature;BMP_pressure;BME280_temperature;BME280_humidity;BME280_pressure;Samples;Min_cycle;Max_cycle;Signal;HPM_P1;HPM_P2
2020/12/05 00:00:33;;;;;;;8.10;6.47;;;;;;;;;;5116899;27;20530;-59
2020/12/05 00:02:59;;;;;;;7.63;6.77;;;;;;;;;;5120962;27;20035;-60
2020/12/05 00:05:25;;;;;;;8.83;6.57;;;;;;;;;;5121110;27;21763;-60
2020/12/05 00:07:51;;;;;;;8.53;6.97;;;;;;;;;;5117721;27;20023;-59
2020/12/05 00:10:17;;;;;;;8.90;7.57;;;;;;;;;;5118143;27;20020;-60
2020/12/05 00:12:43;;;;;;;9.47;7.27;;;;;;;;;;5122373;27;20469;-59
2020/12/05 00:15:09;;;;;;;12.37;7.97;;;;;;;;;;5120090;27;20054;-60
2020/12/05 00:17:35;;;;;;;9.50;7.97;;;;;;;;;;5119998;27;20042;-59
2020/12/05 00:20:01;;;;;;;9.23;6.80;;;;;;;;;;5122884;27;20042;-60
2020/12/05 00:22:28;;;;;;;10.37;7.53;;;;;;;;;;5108422;27;20031;-59
2020/12/05 00:24:54;;;;;;;9.27;7.70;;;;;;;;;;5120719;27;20052;-59
2020/12/05 00:27:20;;;;;;;8.03;6.87;;;;;;;;;;5120746;27;20027;-59
2020/12/05 00:29:48;;;;;;;9.90;7.27;;;;;;;;;;5120862;27;20087;-59
2020/12/05 00:32:14;;;;;;;8.50;6.97;;;;;;;;;;5102223;27;20023;-60
2020/12/05 00:34:40;;;;;;;7.60;6.33;;;;;;;;;;5125817;27;20034;-60
2020/12/05 00:37:06;;;;;;;5.90;5.30;;;;;;;;;;5116841;27;20499;-60
2020/12/05 00:39:32;;;;;;;8.07;5.97;;;;;;;;;;5118660;27;20030;-60
2020/12/05 00:41:58;;;;;;;8.47;7.03;;;;;;;;;;5121430;27;20015;-61
2020/12/05 00:44:24;;;;;;;7.57;6.37;;;;;;;;;;5120900;27;20031;-61
2020/12/05 00:46:50;;;;;;;9.37;7.33;;;;;;;;;;5110143;27;20025;-60
2020/12/05 00:49:16;;;;;;;7.53;6.53;;;;;;;;;;5101108;27;20122;-60
2020/12/05 00:51:42;;;;;;;9.77;6.70;;;;;;;;;;5114696;27;20031;-60
2020/12/05 00:54:08;;;;;;;10.30;7.33;;;;;;;;;;5106320;27;20463;-60
2020/12/05 00:56:34;;;;;;;9.00;6.77;;;;;;;;;;5113390;27;20024;-60
2020/12/05 00:59:00;;;;;;;9.13;7.23;;;;;;;;;;5124436;27;20122;-60
2020/12/05 01:01:26;;;;;;;8.47;7.17;;;;;;;;;;5119917;27;20059;-60
2020/12/05 01:03:52;;;;;;;9.20;6.87;;;;;;;;;;5114030;27;20047;-60
2020/12/05 01:06:18;;;;;;;8.63;6.77;;;;;;;;;;5121530;27;20030;-60
2020/12/05 01:08:45;;;;;;;9.30;6.83;;;;;;;;;;5117417;27;20038;-61
2020/12/05 01:11:17;;;;;;;8.50;6.70;;;;;;;;;;5120708;27;20027;-60
2020/12/05 01:13:44;;;;;;;8.77;6.83;;;;;;;;;;5102392;27;20039;-61
2020/12/05 01:16:11;;;;;;;11.17;7.83;;;;;;;;;;5119167;27;20596;-60
2020/12/05 01:18:37;;;;;;;7.93;5.93;;;;;;;;;;5116158;27;20492;-60
2020/12/05 01:21:03;;;;;;;9.17;6.50;;;;;;;;;;5117491;27;20047;-60
2020/12/05 01:23:29;;;;;;;6.70;5.93;;;;;;;;;;5116371;27;20480;-60
2020/12/05 01:25:55;;;;;;;9.20;6.63;;;;;;;;;;5120944;27;20030;-60
2020/12/05 01:28:21;;;;;;;8.60;7.10;;;;;;;;;;5118915;27;20031;-59
2020/12/05 01:30:47;;;;;;;8.10;7.03;;;;;;;;;;5119313;27;20023;-60
2020/12/05 01:33:13;;;;;;;8.80;7.70;;;;;;;;;;5117917;27;20019;-60
2020/12/05 01:35:39;;;;;;;8.23;6.93;;;;;;;;;;5102149;27;20108;-60
2020/12/05 01:38:05;;;;;;;8.97;7.20;;;;;;;;;;5115048;27;20028;-60
2020/12/05 01:40:31;;;;;;;8.20;7.17;;;;;;;;;;5117872;27;20019;-60
2020/12/05 01:42:57;;;;;;;10.40;7.00;;;;;;;;;;5115522;27;20032;-60
2020/12/05 01:45:23;;;;;;;8.17;7.07;;;;;;;;;;5119558;27;20030;-60
2020/12/05 01:47:49;;;;;;;9.03;6.90;;;;;;;;;;5121102;27;20125;-60
2020/12/05 01:50:16;;;;;;;8.37;7.03;;;;;;;;;;5120980;27;20483;-60
2020/12/05 01:52:43;;;;;;;8.93;6.83;;;;;;;;;;5128974;27;20023;-60
2020/12/05 01:55:09;;;;;;;7.97;7.17;;;;;;;;;;5119071;27;20030;-60
2020/12/05 01:57:35;;;;;;;7.80;7.00;;;;;;;;;;5122373;27;20428;-61
2020/12/05 02:00:01;;;;;;;8.77;7.20;;;;;;;;;;5119055;27;20495;-60
2020/12/05 02:02:27;;;;;;;9.07;7.63;;;;;;;;;;5125386;27;20031;-60
2020/12/05 02:04:59;;;;;;;9.10;8.17;;;;;;;;;;5121666;27;20095;-60
2020/12/05 02:07:38;;;;;;;9.53;7.67;;;;;;;;;;5121991;27;20103;-60
2020/12/05 02:10:08;;;;;;;9.83;7.50;;;;;;;;;;5118142;27;20027;-60
2020/12/05 02:12:38;;;;;;;9.27;7.47;;;;;;;;;;5127274;27;20046;-60
2020/12/05 02:15:08;;;;;;;9.63;7.77;;;;;;;;;;5119381;27;20122;-60
2020/12/05 02:17:36;;;;;;;9.40;7.90;;;;;;;;;;5123015;27;20069;-60
2020/12/05 02:20:04;;;;;;;8.00;6.40;;;;;;;;;;5122389;27;20116;-60
2020/12/05 02:22:32;;;;;;;10.13;7.10;;;;;;;;;;5115473;27;20488;-59
2020/12/05 02:24:59;;;;;;;10.03;8.17;;;;;;;;;;5119284;27;20054;-61
2020/12/05 02:27:26;;;;;;;8.73;7.10;;;;;;;;;;5122871;27;20098;-60
2020/12/05 02:29:52;;;;;;;8.80;7.83;;;;;;;;;;5126260;27;20023;-59
2020/12/05 02:32:18;;;;;;;9.80;7.90;;;;;;;;;;5119532;27;20055;-59
2020/12/05 02:34:44;;;;;;;8.63;7.40;;;;;;;;;;5130382;27;20115;-59
2020/12/05 02:37:12;;;;;;;8.50;7.57;;;;;;;;;;5118757;27;20114;-61
2020/12/05 02:39:41;;;;;;;11.90;8.73;;;;;;;;;;5118759;27;20499;-60
2020/12/05 02:42:09;;;;;;;9.20;8.00;;;;;;;;;;5123612;27;20026;-59
2020/12/05 02:44:44;;;;;;;12.80;9.33;;;;;;;;;;5127961;27;20118;-60
2020/12/05 02:47:10;;;;;;;10.63;8.38;;;;;;;;;;5116045;27;20051;-57
2020/12/05 02:49:36;;;;;;;11.13;8.33;;;;;;;;;;5107163;27;20056;-60
2020/12/05 02:52:02;;;;;;;12.70;9.17;;;;;;;;;;5120684;27;20122;-59
2020/12/05 02:54:28;;;;;;;13.33;9.90;;;;;;;;;;5126408;27;20118;-59
2020/12/05 02:56:54;;;;;;;11.30;8.63;;;;;;;;;;5115946;27;20041;-59
2020/12/05 02:59:20;;;;;;;13.43;10.10;;;;;;;;;;5099357;28;20055;-59
2020/12/05 03:01:46;;;;;;;14.53;10.60;;;;;;;;;;5101735;28;20027;-60
2020/12/05 03:04:12;;;;;;;13.40;10.60;;;;;;;;;;5103437;27;20112;-59
2020/12/05 03:06:38;;;;;;;15.00;10.80;;;;;;;;;;5103620;28;20023;-60
2020/12/05 03:09:04;;;;;;;16.60;10.93;;;;;;;;;;5096717;28;20035;-59
2020/12/05 03:11:30;;;;;;;17.10;11.30;;;;;;;;;;5101744;27;20060;-60
2020/12/05 03:13:56;;;;;;;16.47;11.23;;;;;;;;;;5101814;27;20066;-60
2020/12/05 03:16:22;;;;;;;17.33;11.77;;;;;;;;;;5103844;28;20107;-61
2020/12/05 03:18:48;;;;;;;16.27;11.80;;;;;;;;;;5100091;28;20032;-59
2020/12/05 03:21:16;;;;;;;16.93;11.60;;;;;;;;;;5104924;28;20360;-59
2020/12/05 03:23:45;;;;;;;18.20;12.13;;;;;;;;;;5103308;27;20431;-59
2020/12/05 03:26:12;;;;;;;18.30;11.93;;;;;;;;;;5100935;27;20020;-59
2020/12/05 03:28:38;;;;;;;20.67;12.77;;;;;;;;;;5102560;28;20392;-59
2020/12/05 03:31:04;;;;;;;19.87;11.93;;;;;;;;;;5096419;28;20024;-59
2020/12/05 03:33:32;;;;;;;18.50;12.77;;;;;;;;;;5094809;27;20024;-59
2020/12/05 03:35:58;;;;;;;22.63;13.67;;;;;;;;;;5105460;28;21558;-59
2020/12/05 03:38:24;;;;;;;19.73;12.37;;;;;;;;;;5100481;28;20477;-59
2020/12/05 03:40:50;;;;;;;24.13;13.33;;;;;;;;;;5098679;28;20023;-59
2020/12/05 03:43:16;;;;;;;22.97;13.70;;;;;;;;;;5097988;28;20047;-59
2020/12/05 03:45:42;;;;;;;19.37;13.33;;;;;;;;;;5102848;27;20406;-59
2020/12/05 03:48:12;;;;;;;18.37;10.97;;;;;;;;;;5094723;28;20035;-58
2020/12/05 03:50:38;;;;;;;19.97;12.37;;;;;;;;;;5104880;28;20133;-60
2020/12/05 03:53:04;;;;;;;21.40;12.37;;;;;;;;;;5106516;27;20034;-59
2020/12/05 03:55:30;;;;;;;21.13;12.83;;;;;;;;;;5101576;28;20405;-60
2020/12/05 03:57:56;;;;;;;23.00;13.77;;;;;;;;;;5107693;27;20035;-59
2020/12/05 04:00:22;;;;;;;23.43;12.80;;;;;;;;;;5120431;27;20038;-59
2020/12/05 04:02:48;;;;;;;18.83;12.30;;;;;;;;;;5109646;27;20036;-60
2020/12/05 04:05:14;;;;;;;20.97;12.37;;;;;;;;;;5124791;27;20030;-59
2020/12/05 04:07:40;;;;;;;18.07;12.40;;;;;;;;;;5109201;27;20524;-59
2020/12/05 04:10:06;;;;;;;18.83;11.63;;;;;;;;;;5115853;27;20041;-59
2020/12/05 04:12:32;;;;;;;19.47;12.43;;;;;;;;;;5133301;27;20054;-59
2020/12/05 04:14:58;;;;;;;19.63;11.20;;;;;;;;;;5124559;27;20068;-60
2020/12/05 04:17:24;;;;;;;15.23;10.97;;;;;;;;;;5121987;27;20027;-59
2020/12/05 04:19:50;;;;;;;19.27;11.63;;;;;;;;;;5119409;27;20011;-59
2020/12/05 04:22:16;;;;;;;18.57;12.33;;;;;;;;;;5123046;27;20024;-58
2020/12/05 04:24:42;;;;;;;19.53;12.47;;;;;;;;;;5120915;27;20054;-59
2020/12/05 04:27:08;;;;;;;18.07;11.67;;;;;;;;;;5119814;27;20034;-59
2020/12/05 04:29:34;;;;;;;19.50;11.40;;;;;;;;;;5117352;27;20028;-59
2020/12/05 04:32:00;;;;;;;20.47;10.77;;;;;;;;;;5114038;27;20024;-59
2020/12/05 04:34:26;;;;;;;19.23;11.43;;;;;;;;;;5126230;27;20034;-59
2020/12/05 04:36:52;;;;;;;16.77;10.17;;;;;;;;;;5116086;27;20027;-59
2020/12/05 04:39:18;;;;;;;15.63;10.10;;;;;;;;;;5124928;27;20034;-58
2020/12/05 04:41:44;;;;;;;16.60;10.17;;;;;;;;;;5119637;27;20421;-59
2020/12/05 04:44:11;;;;;;;15.77;9.83;;;;;;;;;;5118968;27;20462;-59
2020/12/05 04:46:37;;;;;;;16.40;10.03;;;;;;;;;;5124154;27;20045;-59
2020/12/05 04:49:03;;;;;;;15.87;10.07;;;;;;;;;;5118243;27;20040;-59
2020/12/05 04:51:37;;;;;;;15.17;9.50;;;;;;;;;;5119587;27;20058;-59
2020/12/05 04:54:04;;;;;;;18.17;10.40;;;;;;;;;;5117197;27;20020;-59
2020/12/05 04:56:35;;;;;;;16.63;9.03;;;;;;;;;;5114415;27;20088;-59
2020/12/05 04:59:03;;;;;;;17.87;10.83;;;;;;;;;;5117761;27;20043;-59
2020/12/05 05:01:33;;;;;;;16.60;10.13;;;;;;;;;;5121358;27;20027;-59
2020/12/05 05:03:59;;;;;;;15.67;9.03;;;;;;;;;;5117844;27;20088;-59
2020/12/05 05:06:25;;;;;;;15.30;9.97;;;;;;;;;;5114733;27;20029;-59
2020/12/05 05:08:51;;;;;;;15.83;9.77;;;;;;;;;;5124109;27;20027;-59
2020/12/05 05:11:19;;;;;;;13.53;8.70;;;;;;;;;;5121667;27;20027;-59
2020/12/05 05:13:57;;;;;;;18.30;10.00;;;;;;;;;;5120085;27;20381;-59
2020/12/05 05:16:26;;;;;;;16.77;9.73;;;;;;;;;;5125462;27;20469;-60
2020/12/05 05:18:52;;;;;;;21.83;10.40;;;;;;;;;;5119785;27;20618;-60
2020/12/05 05:21:38;;;;;;;27.20;12.03;;;;;;;;;;5103871;27;20353;-60
2020/12/05 05:24:10;;;;;;;23.93;11.87;;;;;;;;;;5123992;27;20077;-59
2020/12/05 05:26:36;;;;;;;22.03;11.20;;;;;;;;;;5126398;27;20023;-60
2020/12/05 05:29:02;;;;;;;25.17;11.13;;;;;;;;;;5125006;27;20438;-59
2020/12/05 05:31:44;;;;;;;26.17;12.30;;;;;;;;;;5123277;27;20039;-59
2020/12/05 05:34:18;;;;;;;29.30;13.03;;;;;;;;;;5121866;27;20027;-60
2020/12/05 05:36:45;;;;;;;28.27;12.37;;;;;;;;;;5122391;27;20365;-59
2020/12/05 05:39:13;;;;;;;36.10;14.90;;;;;;;;;;5124099;27;20024;-60
2020/12/05 05:41:39;;;;;;;35.63;15.30;;;;;;;;;;5123915;27;20468;-60
2020/12/05 05:44:05;;;;;;;30.97;13.50;;;;;;;;;;5120997;27;20039;-60
2020/12/05 05:46:36;;;;;;;29.77;14.27;;;;;;;;;;5105692;27;20026;-60
2020/12/05 05:49:03;;;;;;;36.90;14.97;;;;;;;;;;5120970;27;20027;-60
2020/12/05 05:51:44;;;;;;;35.27;14.93;;;;;;;;;;5120865;27;20365;-60
2020/12/05 05:54:18;;;;;;;39.57;15.53;;;;;;;;;;5119552;27;20494;-60
2020/12/05 05:57:00;;;;;;;36.73;15.27;;;;;;;;;;5122069;27;20418;-60
2020/12/05 05:59:27;;;;;;;39.37;16.23;;;;;;;;;;5124320;27;20810;-60
2020/12/05 06:01:54;;;;;;;31.77;15.90;;;;;;;;;;5103758;27;20019;-60
2020/12/05 06:04:26;;;;;;;36.83;14.67;;;;;;;;;;5117579;27;20089;-60
2020/12/05 06:06:52;;;;;;;30.53;14.87;;;;;;;;;;5124965;27;20447;-60
2020/12/05 06:09:22;;;;;;;37.97;15.43;;;;;;;;;;5126747;27;20027;-60
2020/12/05 06:11:50;;;;;;;34.67;13.27;;;;;;;;;;5125098;27;20023;-60
2020/12/05 06:14:18;;;;;;;39.50;15.87;;;;;;;;;;5118676;27;20081;-60
2020/12/05 06:16:44;;;;;;;39.30;15.63;;;;;;;;;;5111231;27;20430;-60
2020/12/05 06:19:10;;;;;;;30.03;13.83;;;;;;;;;;5124493;27;20031;-60
2020/12/05 06:21:38;;;;;;;29.50;14.00;;;;;;;;;;5122545;27;20079;-60
2020/12/05 06:24:05;;;;;;;33.07;13.73;;;;;;;;;;5122362;27;20493;-59
2020/12/05 06:26:34;;;;;;;32.10;13.30;;;;;;;;;;5124008;27;20012;-59
2020/12/05 06:29:01;;;;;;;34.17;13.07;;;;;;;;;;5123741;27;20515;-59
2020/12/05 06:31:40;;;;;;;30.93;13.87;;;;;;;;;;5119774;27;20041;-59
2020/12/05 06:34:07;;;;;;;29.87;14.83;;;;;;;;;;5128127;27;20550;-59
2020/12/05 06:36:33;;;;;;;36.00;14.07;;;;;;;;;;5119831;27;20380;-59
2020/12/05 06:39:16;;;;;;;29.97;13.77;;;;;;;;;;5125224;27;20027;-59
2020/12/05 06:41:44;;;;;;;32.07;14.90;;;;;;;;;;5117575;27;20031;-59
2020/12/05 06:44:20;;;;;;;33.90;15.00;;;;;;;;;;5118515;27;20062;-59
2020/12/05 06:46:46;;;;;;;28.93;15.07;;;;;;;;;;5122840;27;20024;-59
2020/12/05 06:49:32;;;;;;;30.50;14.57;;;;;;;;;;5129746;27;20035;-60
2020/12/05 06:52:18;;;;;;;31.63;13.63;;;;;;;;;;5118923;27;20050;-59
2020/12/05 06:55:07;;;;;;;28.33;14.50;;;;;;;;;;5122203;27;20729;-59
2020/12/05 06:57:35;;;;;;;32.10;14.87;;;;;;;;;;5115817;27;20051;-59
2020/12/05 07:00:19;;;;;;;33.00;14.80;;;;;;;;;;5127722;27;20030;-59
2020/12/05 07:02:53;;;;;;;29.77;14.13;;;;;;;;;;5115520;27;20499;-59
2020/12/05 07:05:19;;;;;;;31.17;13.80;;;;;;;;;;5124870;27;20038;-60
2020/12/05 07:07:51;;;;;;;36.60;15.07;;;;;;;;;;5121487;27;20033;-60
2020/12/05 07:10:17;;;;;;;38.20;15.93;;;;;;;;;;5121813;27;20031;-61
2020/12/05 07:12:45;;;;;;;38.00;15.93;;;;;;;;;;5121665;27;20100;-60
2020/12/05 07:15:25;;;;;;;34.87;15.27;;;;;;;;;;5122192;27;20031;-60
2020/12/05 07:17:55;;;;;;;39.40;17.73;;;;;;;;;;5114200;27;20019;-60
2020/12/05 07:20:21;;;;;;;41.87;17.17;;;;;;;;;;5126227;27;20028;-59
2020/12/05 07:22:51;;;;;;;37.03;16.50;;;;;;;;;;5120159;27;20038;-59
2020/12/05 07:25:18;;;;;;;37.33;16.10;;;;;;;;;;5123105;27;20449;-59
2020/12/05 07:27:44;;;;;;;36.67;17.13;;;;;;;;;;5119585;27;20029;-59
2020/12/05 07:30:10;;;;;;;41.10;16.27;;;;;;;;;;5121580;27;20403;-60
2020/12/05 07:32:38;;;;;;;52.33;20.03;;;;;;;;;;5121720;27;20572;-59
2020/12/05 07:35:15;;;;;;;39.17;17.83;;;;;;;;;;5117705;27;20450;-60
2020/12/05 07:37:42;;;;;;;40.27;18.50;;;;;;;;;;5121279;27;20050;-60
2020/12/05 07:40:08;;;;;;;44.50;18.27;;;;;;;;;;5123651;27;20041;-60
2020/12/05 07:42:38;;;;;;;50.80;18.43;;;;;;;;;;5123331;27;20027;-59
2020/12/05 07:45:05;;;;;;;47.10;19.17;;;;;;;;;;5122585;27;20526;-59
2020/12/05 07:47:31;;;;;;;49.17;20.97;;;;;;;;;;5117979;27;20019;-59
2020/12/05 07:49:57;;;;;;;47.67;21.43;;;;;;;;;;5118805;27;20019;-60
2020/12/05 07:52:24;;;;;;;48.27;19.90;;;;;;;;;;5123495;27;20077;-60
2020/12/05 07:54:55;;;;;;;48.57;19.20;;;;;;;;;;5112805;27;20024;-60
2020/12/05 07:57:21;;;;;;;44.37;20.33;;;;;;;;;;5125176;27;20038;-60
2020/12/05 07:59:47;;;;;;;48.80;21.77;;;;;;;;;;5117342;27;20052;-60
2020/12/05 08:02:30;;;;;;;42.77;18.73;;;;;;;;;;5123043;27;20598;-60
2020/12/05 08:05:01;;;;;;;44.93;20.80;;;;;;;;;;5119002;27;20030;-60
2020/12/05 08:07:41;;;;;;;49.03;19.90;;;;;;;;;;5101452;27;20024;-59
2020/12/05 08:10:11;;;;;;;46.27;19.07;;;;;;;;;;5114743;27;20012;-59
2020/12/05 08:12:55;;;;;;;46.17;19.60;;;;;;;;;;5127679;27;20033;-59
2020/12/05 08:15:22;;;;;;;43.28;19.25;;;;;;;;;;5122675;27;20031;-59
2020/12/05 08:17:49;;;;;;;50.23;20.47;;;;;;;;;;5123670;27;20560;-60
2020/12/05 08:20:16;;;;;;;47.13;18.97;;;;;;;;;;5117106;27;20061;-60
2020/12/05 08:22:42;;;;;;;44.10;18.83;;;;;;;;;;5132477;27;20548;-60
2020/12/05 08:25:09;;;;;;;47.17;18.50;;;;;;;;;;5118718;27;20027;-60
2020/12/05 08:27:37;;;;;;;52.43;19.83;;;;;;;;;;5123179;27;20020;-60
2020/12/05 08:30:04;;;;;;;50.43;18.63;;;;;;;;;;5116504;27;20057;-60
2020/12/05 08:32:30;;;;;;;48.30;18.70;;;;;;;;;;5121849;27;20023;-60
2020/12/05 08:35:07;;;;;;;48.43;21.17;;;;;;;;;;5118234;27;20027;-59
2020/12/05 08:37:33;;;;;;;51.10;21.77;;;;;;;;;;5122979;27;20028;-60
2020/12/05 08:39:59;;;;;;;52.53;21.87;;;;;;;;;;5119264;27;20027;-60
2020/12/05 08:42:26;;;;;;;53.63;20.63;;;;;;;;;;5117496;27;20394;-60
2020/12/05 08:44:52;;;;;;;49.90;21.37;;;;;;;;;;5120139;27;20381;-59
2020/12/05 08:47:18;;;;;;;49.13;22.03;;;;;;;;;;5121867;27;20501;-60
2020/12/05 08:49:48;;;;;;;64.47;25.67;;;;;;;;;;5118516;27;20023;-59
2020/12/05 08:52:14;;;;;;;62.20;23.73;;;;;;;;;;5122391;27;20027;-59
2020/12/05 08:54:50;;;;;;;54.37;22.10;;;;;;;;;;5124582;27;20035;-60
2020/12/05 08:57:16;;;;;;;64.13;26.27;;;;;;;;;;5122843;27;20162;-60
2020/12/05 08:59:43;;;;;;;72.33;27.97;;;;;;;;;;5126025;27;20535;-60
2020/12/05 09:02:10;;;;;;;53.43;24.50;;;;;;;;;;5123289;27;20039;-60
2020/12/05 09:04:37;;;;;;;52.73;24.60;;;;;;;;;;5129137;27;20468;-60
2020/12/05 09:07:16;;;;;;;54.37;23.60;;;;;;;;;;5122198;27;20032;-60
2020/12/05 09:09:43;;;;;;;48.07;22.23;;;;;;;;;;5127047;27;20503;-60
2020/12/05 09:12:10;;;;;;;49.33;22.97;;;;;;;;;;5129735;27;20020;-60
2020/12/05 09:14:36;;;;;;;43.47;21.50;;;;;;;;;;5113773;27;20031;-60
2020/12/05 09:17:03;;;;;;;48.10;21.57;;;;;;;;;;5121677;27;20388;-60
2020/12/05 09:19:31;;;;;;;40.07;19.00;;;;;;;;;;5127800;27;20485;-60
2020/12/05 09:21:57;;;;;;;42.90;19.80;;;;;;;;;;5122927;27;20102;-60
2020/12/05 09:24:23;;;;;;;42.57;19.93;;;;;;;;;;5131225;27;20039;-60
2020/12/05 09:26:54;;;;;;;34.97;16.47;;;;;;;;;;5104630;27;20028;-59
2020/12/05 09:29:20;;;;;;;31.47;15.37;;;;;;;;;;5117547;27;20073;-60
2020/12/05 09:31:55;;;;;;;24.73;13.40;;;;;;;;;;5126497;27;20094;-60
2020/12/05 09:34:34;;;;;;;22.83;12.53;;;;;;;;;;5126049;27;20050;-60
2020/12/05 09:37:00;;;;;;;25.33;12.40;;;;;;;;;;5105158;27;20073;-59
2020/12/05 09:39:26;;;;;;;24.10;12.80;;;;;;;;;;5124980;27;20109;-60
2020/12/05 09:41:52;;;;;;;29.20;13.40;;;;;;;;;;5115243;27;20538;-60
2020/12/05 09:44:19;;;;;;;23.70;13.03;;;;;;;;;;5122889;27;20050;-60
2020/12/05 09:46:45;;;;;;;23.70;12.00;;;;;;;;;;5125275;27;20031;-59
2020/12/05 09:49:11;;;;;;;19.00;11.23;;;;;;;;;;5126826;27;20035;-59
2020/12/05 09:51:37;;;;;;;20.07;10.93;;;;;;;;;;5133693;27;20091;-59
2020/12/05 09:54:03;;;;;;;20.07;10.93;;;;;;;;;;5123673;27;20032;-60
2020/12/05 09:56:29;;;;;;;15.90;10.50;;;;;;;;;;5133909;27;20027;-60
2020/12/05 09:58:55;;;;;;;17.93;10.73;;;;;;;;;;5126468;27;20095;-60
2020/12/05 10:01:21;;;;;;;18.97;10.93;;;;;;;;;;5125587;27;20417;-59
2020/12/05 10:03:47;;;;;;;16.43;10.47;;;;;;;;;;5118995;27;20031;-60
2020/12/05 10:06:13;;;;;;;16.20;10.43;;;;;;;;;;5130105;27;20042;-60
2020/12/05 10:08:39;;;;;;;17.13;10.60;;;;;;;;;;5123471;27;20496;-58
2020/12/05 10:11:05;;;;;;;14.00;9.53;;;;;;;;;;5099249;27;20020;-58
2020/12/05 10:13:31;;;;;;;12.20;9.70;;;;;;;;;;5098887;27;20019;-59
2020/12/05 10:15:57;;;;;;;15.07;10.80;;;;;;;;;;5125761;27;20389;-59
2020/12/05 10:18:23;;;;;;;17.00;9.97;;;;;;;;;;5122965;27;20102;-59
2020/12/05 10:20:49;;;;;;;15.97;10.73;;;;;;;;;;5107476;27;20104;-58
2020/12/05 10:23:15;;;;;;;19.57;11.10;;;;;;;;;;5125037;27;20051;-57
2020/12/05 10:25:41;;;;;;;16.60;11.23;;;;;;;;;;5119665;27;20019;-59
2020/12/05 10:28:07;;;;;;;21.33;13.47;;;;;;;;;;5124510;27;20038;-58
2020/12/05 10:30:33;;;;;;;21.40;15.50;;;;;;;;;;5098191;27;20011;-59
2020/12/05 10:32:59;;;;;;;27.17;18.57;;;;;;;;;;5120011;27;20548;-59
2020/12/05 10:35:25;;;;;;;34.37;19.63;;;;;;;;;;5119939;27;20015;-58
2020/12/05 10:37:51;;;;;;;27.03;17.60;;;;;;;;;;5123067;27;20075;-57
2020/12/05 10:40:17;;;;;;;30.50;19.70;;;;;;;;;;5121688;27;20377;-60
2020/12/05 10:42:43;;;;;;;29.07;19.47;;;;;;;;;;5122553;27;20075;-59
2020/12/05 10:45:09;;;;;;;29.73;19.03;;;;;;;;;;5123768;27;20045;-59
2020/12/05 10:47:35;;;;;;;29.67;19.00;;;;;;;;;;5124845;27;20027;-59
2020/12/05 10:50:01;;;;;;;34.60;20.97;;;;;;;;;;5121041;27;20379;-58
2020/12/05 10:52:27;;;;;;;31.33;19.90;;;;;;;;;;5118855;27;20031;-58
2020/12/05 10:54:53;;;;;;;28.20;19.27;;;;;;;;;;5117209;27;20035;-59
2020/12/05 10:57:19;;;;;;;30.50;18.53;;;;;;;;;;5123779;27;20027;-58
2020/12/05 10:59:45;;;;;;;33.67;19.80;;;;;;;;;;5121505;27;20063;-58
2020/12/05 11:02:11;;;;;;;34.20;20.40;;;;;;;;;;5114954;27;20034;-59
2020/12/05 11:04:37;;;;;;;32.70;19.77;;;;;;;;;;5121304;27;20102;-59
2020/12/05 11:07:03;;;;;;;34.37;19.13;;;;;;;;;;5123188;27;20051;-57
2020/12/05 11:09:29;;;;;;;34.23;18.80;;;;;;;;;;5123903;27;20030;-58
2020/12/05 11:11:55;;;;;;;28.87;17.57;;;;;;;;;;5120705;27;20037;-57
2020/12/05 11:14:21;;;;;;;35.80;20.53;;;;;;;;;;5121042;27;20605;-58
2020/12/05 11:16:49;;;;;;;36.50;20.67;;;;;;;;;;5121619;27;20111;-58
2020/12/05 11:19:15;;;;;;;42.10;21.60;;;;;;;;;;5116446;27;20031;-59
2020/12/05 11:21:44;;;;;;;40.50;21.63;;;;;;;;;;5097520;27;20374;-58
2020/12/05 11:24:10;;;;;;;37.77;21.00;;;;;;;;;;5129575;27;20028;-58
2020/12/05 11:26:36;;;;;;;47.67;25.27;;;;;;;;;;5141669;27;20019;-59
2020/12/05 11:29:04;;;;;;;39.67;22.40;;;;;;;;;;5131115;27;20467;-58
2020/12/05 11:31:30;;;;;;;48.40;22.90;;;;;;;;;;5130872;27;20383;-59
2020/12/05 11:33:56;;;;;;;48.77;23.37;;;;;;;;;;5122953;27;20572;-59
2020/12/05 11:36:22;;;;;;;41.40;19.67;;;;;;;;;;5131313;27;20034;-59
2020/12/05 11:38:48;;;;;;;39.07;21.30;;;;;;;;;;5126568;27;20027;-59
2020/12/05 11:41:16;;;;;;;42.77;20.33;;;;;;;;;;5119605;27;20027;-59
2020/12/05 11:43:42;;;;;;;40.17;20.10;;;;;;;;;;5130836;27;20031;-59
2020/12/05 11:46:08;;;;;;;44.90;21.73;;;;;;;;;;5136180;27;20083;-59
2020/12/05 11:48:34;;;;;;;42.67;20.03;;;;;;;;;;5133351;27;20027;-59
2020/12/05 11:51:00;;;;;;;44.50;22.03;;;;;;;;;;5129256;27;20027;-58
2020/12/05 11:53:26;;;;;;;40.73;20.53;;;;;;;;;;5133556;27;20082;-59
2020/12/05 11:55:52;;;;;;;43.03;20.60;;;;;;;;;;5124941;27;20473;-59
2020/12/05 11:58:18;;;;;;;49.33;21.87;;;;;;;;;;5108593;27;20132;-59
2020/12/05 12:00:44;;;;;;;35.57;18.80;;;;;;;;;;5111879;27;20104;-59
2020/12/05 12:03:11;;;;;;;48.43;21.80;;;;;;;;;;5109631;27;20051;-59
2020/12/05 12:05:37;;;;;;;44.63;19.97;;;;;;;;;;5112386;27;20048;-59
2020/12/05 12:08:03;;;;;;;46.53;19.90;;;;;;;;;;5109849;27;20492;-59
2020/12/05 12:10:29;;;;;;;41.67;19.67;;;;;;;;;;5113370;27;20027;-62
2020/12/05 12:12:55;;;;;;;45.00;20.13;;;;;;;;;;5109779;27;20089;-62
2020/12/05 12:15:21;;;;;;;51.30;20.20;;;;;;;;;;5112212;27;20023;-62
2020/12/05 12:17:47;;;;;;;44.43;20.70;;;;;;;;;;5108280;27;20038;-62
2020/12/05 12:20:13;;;;;;;46.97;21.13;;;;;;;;;;5110619;27;20031;-64
2020/12/05 12:22:40;;;;;;;44.17;19.23;;;;;;;;;;5108884;27;20164;-65
2020/12/05 12:25:06;;;;;;;39.30;19.03;;;;;;;;;;5110928;27;20027;-65
2020/12/05 12:27:32;;;;;;;45.03;20.47;;;;;;;;;;5112097;27;20027;-65
2020/12/05 12:29:58;;;;;;;46.93;20.17;;;;;;;;;;5108374;27;20023;-65
2020/12/05 12:32:24;;;;;;;45.80;20.27;;;;;;;;;;5112560;27;20035;-64
2020/12/05 12:34:53;;;;;;;48.17;23.10;;;;;;;;;;5109047;27;20043;-65
2020/12/05 12:37:19;;;;;;;46.50;21.77;;;;;;;;;;5114035;27;20034;-65
2020/12/05 12:39:45;;;;;;;45.97;21.57;;;;;;;;;;5113534;27;20035;-65
2020/12/05 12:42:12;;;;;;;47.83;21.40;;;;;;;;;;5113911;27;20031;-64
2020/12/05 12:44:38;;;;;;;44.07;22.23;;;;;;;;;;5111116;27;20037;-64
2020/12/05 12:49:36;;;;;;;49.00;22.60;;;;;;;;;;5111139;27;20153;-64
2020/12/05 12:52:02;;;;;;;51.43;26.07;;;;;;;;;;5114570;27;20079;-64
2020/12/05 12:54:28;;;;;;;48.87;24.47;;;;;;;;;;5110361;27;20076;-63
2020/12/05 12:56:54;;;;;;;46.20;24.03;;;;;;;;;;5114829;27;20028;-63
2020/12/05 12:59:21;;;;;;;56.23;24.97;;;;;;;;;;5110936;27;20120;-63
2020/12/05 13:01:51;;;;;;;50.57;23.80;;;;;;;;;;5113173;27;20676;-63
2020/12/05 13:04:17;;;;;;;47.63;22.77;;;;;;;;;;5110658;27;20039;-63
2020/12/05 13:06:43;;;;;;;45.37;22.17;;;;;;;;;;5110487;27;20168;-63
2020/12/05 13:09:09;;;;;;;44.43;22.30;;;;;;;;;;5115245;27;20043;-63
2020/12/05 13:11:35;;;;;;;45.03;22.53;;;;;;;;;;5110314;27;20024;-63
2020/12/05 13:14:01;;;;;;;49.30;23.90;;;;;;;;;;5120129;27;20477;-63
2020/12/05 13:16:27;;;;;;;48.23;23.77;;;;;;;;;;5116330;27;20023;-63
2020/12/05 13:18:53;;;;;;;53.53;23.93;;;;;;;;;;5120305;27;20076;-63
2020/12/05 13:21:22;;;;;;;52.80;25.43;;;;;;;;;;5117921;27;20104;-64
2020/12/05 13:23:51;;;;;;;46.03;24.03;;;;;;;;;;5122705;27;20037;-63
2020/12/05 13:26:21;;;;;;;49.13;23.63;;;;;;;;;;5118995;27;20395;-62
2020/12/05 13:28:47;;;;;;;49.93;24.70;;;;;;;;;;5117684;27;20023;-63
2020/12/05 13:31:14;;;;;;;56.67;25.37;;;;;;;;;;5113630;27;20031;-63
2020/12/05 13:33:40;;;;;;;52.43;26.63;;;;;;;;;;5123517;27;20024;-63
2020/12/05 13:36:07;;;;;;;57.63;24.97;;;;;;;;;;5118942;27;20043;-63
2020/12/05 13:38:33;;;;;;;63.67;27.13;;;;;;;;;;5122608;27;20480;-64
2020/12/05 13:40:59;;;;;;;50.10;22.33;;;;;;;;;;5123461;27;20076;-64
2020/12/05 13:43:25;;;;;;;52.47;22.23;;;;;;;;;;5128586;27;20058;-64
2020/12/05 13:45:52;;;;;;;54.90;23.20;;;;;;;;;;5123094;27;20045;-63
2020/12/05 13:48:18;;;;;;;40.87;21.43;;;;;;;;;;5119169;27;20023;-63
2020/12/05 13:50:44;;;;;;;59.30;24.53;;;;;;;;;;5127250;27;20023;-62
2020/12/05 13:53:10;;;;;;;52.87;23.33;;;;;;;;;;5126967;27;20023;-62
2020/12/05 13:55:36;;;;;;;42.00;21.63;;;;;;;;;;5111571;27;20019;-62
2020/12/05 13:58:02;;;;;;;41.83;20.77;;;;;;;;;;5123631;27;20143;-63
2020/12/05 14:00:28;;;;;;;71.03;25.23;;;;;;;;;;5123386;27;20529;-62
2020/12/05 14:02:54;;;;;;;41.73;19.07;;;;;;;;;;5124732;27;20069;-62
2020/12/05 14:05:20;;;;;;;33.87;16.23;;;;;;;;;;5126449;27;20019;-62
2020/12/05 14:07:46;;;;;;;36.27;18.23;;;;;;;;;;5123177;27;20488;-63
2020/12/05 14:10:12;;;;;;;42.77;20.83;;;;;;;;;;5127186;27;20016;-63
2020/12/05 14:12:38;;;;;;;35.50;17.93;;;;;;;;;;5103983;27;20015;-62
2020/12/05 14:15:05;;;;;;;30.53;16.27;;;;;;;;;;5125620;27;20027;-62
2020/12/05 14:17:31;;;;;;;39.63;19.33;;;;;;;;;;5108852;27;20480;-62
2020/12/05 14:19:58;;;;;;;43.00;21.80;;;;;;;;;;5124026;27;20172;-62
2020/12/05 14:22:24;;;;;;;34.07;19.30;;;;;;;;;;5119755;27;20038;-62
2020/12/05 14:24:50;;;;;;;45.43;21.93;;;;;;;;;;5119712;27;20508;-63